sensor_id;sensor_type;location;lat;lon;timestamp;temperature;humidity
52869;DHT22;39100;53.480;6.158;2023-07-02T00:01:35;16.00;99.90
52869;DHT22;39100;53.480;6.158;2023-07-02T00:04:00;16.00;99.90
52869;DHT22;39100;53.480;6.158;2023-07-02T00:06:26;16.00;99.90
52869;DHT22;39100;53.480;6.158;2023-07-02T00:08:52;15.90;99.90
52869;DHT22;39100;53.480;6.158;2023-07-02T00:11:17;15.90;99.90
52869;DHT22;39100;53.480;6.158;2023-07-02T00:13:43;16.00;99.90
52869;DHT22;39100;53.480;6.158;2023-07-02T00:16:08;15.90;99.90
52869;DHT22;39100;53.480;6.158;2023-07-02T00:18:34;15.90;99.90
52869;DHT22;39100;53.480;6.158;2023-07-02T00:21:02;15.90;99.90
52869;DHT22;39100;53.480;6.158;2023-07-02T00:23:29;15.90;99.90
52869;DHT22;39100;53.480;6.158;2023-07-02T00:25:56;15.90;99.90
52869;DHT22;39100;53.480;6.158;2023-07-02T00:28:21;15.90;99.90
52869;DHT22;39100;53.480;6.158;2023-07-02T00:30:47;15.90;99.90
52869;DHT22;39100;53.480;6.158;2023-07-02T00:33:12;15.80;99.90
52869;DHT22;39100;53.480;6.158;2023-07-02T00:35:38;15.80;99.90
52869;DHT22;39100;53.480;6.158;2023-07-02T00:38:04;15.80;99.90
52869;DHT22;39100;53.480;6.158;2023-07-02T00:40:29;15.80;99.90
52869;DHT22;39100;53.480;6.158;2023-07-02T00:42:55;15.90;99.90
52869;DHT22;39100;53.480;6.158;2023-07-02T00:45:22;15.90;99.90
52869;DHT22;39100;53.480;6.158;2023-07-02T00:47:48;15.90;99.90
52869;DHT22;39100;53.480;6.158;2023-07-02T00:50:14;16.00;99.90
52869;DHT22;39100;53.480;6.158;2023-07-02T00:52:39;16.00;99.90
52869;DHT22;39100;53.480;6.158;2023-07-02T00:55:05;16.00;99.90
52869;DHT22;39100;53.480;6.158;2023-07-02T00:57:31;16.00;99.90
52869;DHT22;39100;53.480;6.158;2023-07-02T00:59:58;16.00;99.90
52869;DHT22;39100;53.480;6.158;2023-07-02T01:02:25;16.00;99.90
52869;DHT22;39100;53.480;6.158;2023-07-02T01:04:55;16.00;99.90
52869;DHT22;39100;53.480;6.158;2023-07-02T01:07:23;16.10;99.90
52869;DHT22;39100;53.480;6.158;2023-07-02T01:09:49;16.00;99.90
52869;DHT22;39100;53.480;6.158;2023-07-02T01:12:17;16.00;99.90
52869;DHT22;39100;53.480;6.158;2023-07-02T01:14:48;16.10;99.90
52869;DHT22;39100;53.480;6.158;2023-07-02T01:17:16;16.00;99.90
52869;DHT22;39100;53.480;6.158;2023-07-02T01:19:57;16.00;99.90
52869;DHT22;39100;53.480;6.158;2023-07-02T01:22:26;16.00;99.90
52869;DHT22;39100;53.480;6.158;2023-07-02T01:24:53;16.00;99.90
52869;DHT22;39100;53.480;6.158;2023-07-02T01:27:19;16.00;99.90
52869;DHT22;39100;53.480;6.158;2023-07-02T01:29:45;16.00;99.90
52869;DHT22;39100;53.480;6.158;2023-07-02T01:32:15;15.90;99.90
52869;DHT22;39100;53.480;6.158;2023-07-02T01:34:40;16.00;99.90
52869;DHT22;39100;53.480;6.158;2023-07-02T01:37:06;16.00;99.90
52869;DHT22;39100;53.480;6.158;2023-07-02T01:39:33;15.90;99.90
52869;DHT22;39100;53.480;6.158;2023-07-02T01:42:08;16.00;99.90
52869;DHT22;39100;53.480;6.158;2023-07-02T01:44:35;16.00;99.90
52869;DHT22;39100;53.480;6.158;2023-07-02T01:47:01;16.00;99.90
52869;DHT22;39100;53.480;6.158;2023-07-02T01:49:26;16.00;99.90
52869;DHT22;39100;53.480;6.158;2023-07-02T01:51:52;16.00;99.90
52869;DHT22;39100;53.480;6.158;2023-07-02T01:54:19;16.00;99.90
52869;DHT22;39100;53.480;6.158;2023-07-02T01:56:45;16.00;99.90
52869;DHT22;39100;53.480;6.158;2023-07-02T01:59:11;16.00;99.90
52869;DHT22;39100;53.480;6.158;2023-07-02T02:01:37;16.00;99.90
52869;DHT22;39100;53.480;6.158;2023-07-02T02:04:06;15.90;99.90
52869;DHT22;39100;53.480;6.158;2023-07-02T02:06:32;15.90;99.90
52869;DHT22;39100;53.480;6.158;2023-07-02T02:08:57;15.90;99.90
52869;DHT22;39100;53.480;6.158;2023-07-02T02:11:23;15.80;99.90
52869;DHT22;39100;53.480;6.158;2023-07-02T02:13:49;15.80;99.90
52869;DHT22;39100;53.480;6.158;2023-07-02T02:16:15;15.80;99.90
52869;DHT22;39100;53.480;6.158;2023-07-02T02:18:40;15.80;99.90
52869;DHT22;39100;53.480;6.158;2023-07-02T02:21:06;15.80;99.90
52869;DHT22;39100;53.480;6.158;2023-07-02T02:23:32;15.80;99.90
52869;DHT22;39100;53.480;6.158;2023-07-02T02:25:58;15.80;99.90
52869;DHT22;39100;53.480;6.158;2023-07-02T02:28:23;15.80;99.90
52869;DHT22;39100;53.480;6.158;2023-07-02T02:30:49;15.80;99.90
52869;DHT22;39100;53.480;6.158;2023-07-02T02:33:14;15.80;99.90
52869;DHT22;39100;53.480;6.158;2023-07-02T02:35:40;15.90;99.90
52869;DHT22;39100;53.480;6.158;2023-07-02T02:38:05;15.90;99.90
52869;DHT22;39100;53.480;6.158;2023-07-02T02:40:31;15.90;99.90
52869;DHT22;39100;53.480;6.158;2023-07-02T02:42:56;15.90;99.90
52869;DHT22;39100;53.480;6.158;2023-07-02T02:45:22;15.90;99.90
52869;DHT22;39100;53.480;6.158;2023-07-02T02:47:47;15.90;99.90
52869;DHT22;39100;53.480;6.158;2023-07-02T02:50:13;15.90;99.90
52869;DHT22;39100;53.480;6.158;2023-07-02T02:52:39;15.90;99.90
52869;DHT22;39100;53.480;6.158;2023-07-02T02:55:06;16.00;99.90
52869;DHT22;39100;53.480;6.158;2023-07-02T02:57:33;15.90;99.90
52869;DHT22;39100;53.480;6.158;2023-07-02T02:59:58;16.00;99.90
52869;DHT22;39100;53.480;6.158;2023-07-02T03:02:24;16.00;99.90
52869;DHT22;39100;53.480;6.158;2023-07-02T03:04:50;15.90;99.90
52869;DHT22;39100;53.480;6.158;2023-07-02T03:07:15;15.90;99.90
52869;DHT22;39100;53.480;6.158;2023-07-02T03:09:41;15.90;99.90
52869;DHT22;39100;53.480;6.158;2023-07-02T03:12:07;15.90;99.90
52869;DHT22;39100;53.480;6.158;2023-07-02T03:14:33;15.90;99.90
52869;DHT22;39100;53.480;6.158;2023-07-02T03:16:58;15.80;99.90
52869;DHT22;39100;53.480;6.158;2023-07-02T03:19:25;15.80;99.90
52869;DHT22;39100;53.480;6.158;2023-07-02T03:21:50;15.80;99.90
52869;DHT22;39100;53.480;6.158;2023-07-02T03:24:16;15.80;99.90
52869;DHT22;39100;53.480;6.158;2023-07-02T03:26:44;15.70;99.90
52869;DHT22;39100;53.480;6.158;2023-07-02T03:29:11;15.70;99.90
52869;DHT22;39100;53.480;6.158;2023-07-02T03:31:37;15.70;99.90
52869;DHT22;39100;53.480;6.158;2023-07-02T03:34:05;15.80;99.90
52869;DHT22;39100;53.480;6.158;2023-07-02T03:36:31;15.80;99.90
52869;DHT22;39100;53.480;6.158;2023-07-02T03:38:57;15.80;99.90
52869;DHT22;39100;53.480;6.158;2023-07-02T03:41:22;15.80;99.90
52869;DHT22;39100;53.480;6.158;2023-07-02T03:43:48;15.80;99.90
52869;DHT22;39100;53.480;6.158;2023-07-02T03:46:14;15.80;99.90
52869;DHT22;39100;53.480;6.158;2023-07-02T03:48:39;15.70;99.90
52869;DHT22;39100;53.480;6.158;2023-07-02T03:51:05;15.80;99.90
52869;DHT22;39100;53.480;6.158;2023-07-02T03:53:31;15.70;99.90
52869;DHT22;39100;53.480;6.158;2023-07-02T03:55:57;15.80;99.90
52869;DHT22;39100;53.480;6.158;2023-07-02T03:58:22;15.70;99.90
52869;DHT22;39100;53.480;6.158;2023-07-02T04:00:48;15.70;99.90
52869;DHT22;39100;53.480;6.158;2023-07-02T04:03:15;15.80;99.90
52869;DHT22;39100;53.480;6.158;2023-07-02T04:05:42;15.80;99.90
52869;DHT22;39100;53.480;6.158;2023-07-02T04:08:07;15.80;99.90
52869;DHT22;39100;53.480;6.158;2023-07-02T04:10:33;15.80;99.90
52869;DHT22;39100;53.480;6.158;2023-07-02T04:12:58;15.80;99.90
52869;DHT22;39100;53.480;6.158;2023-07-02T04:15:24;15.80;99.90
52869;DHT22;39100;53.480;6.158;2023-07-02T04:17:52;15.80;99.90
52869;DHT22;39100;53.480;6.158;2023-07-02T04:20:17;15.70;99.90
52869;DHT22;39100;53.480;6.158;2023-07-02T04:22:44;15.70;99.90
52869;DHT22;39100;53.480;6.158;2023-07-02T04:25:11;15.70;99.90
52869;DHT22;39100;53.480;6.158;2023-07-02T04:27:41;15.70;99.90
52869;DHT22;39100;53.480;6.158;2023-07-02T04:30:08;15.70;99.90
52869;DHT22;39100;53.480;6.158;2023-07-02T04:32:35;15.70;99.90
52869;DHT22;39100;53.480;6.158;2023-07-02T04:35:01;15.80;99.90
52869;DHT22;39100;53.480;6.158;2023-07-02T04:37:26;15.70;99.90
52869;DHT22;39100;53.480;6.158;2023-07-02T04:39:54;15.70;99.90
52869;DHT22;39100;53.480;6.158;2023-07-02T04:42:19;15.70;99.90
52869;DHT22;39100;53.480;6.158;2023-07-02T04:44:45;15.70;99.90
52869;DHT22;39100;53.480;6.158;2023-07-02T04:47:10;15.60;99.90
52869;DHT22;39100;53.480;6.158;2023-07-02T04:49:37;15.60;99.90
52869;DHT22;39100;53.480;6.158;2023-07-02T04:52:03;15.70;99.90
52869;DHT22;39100;53.480;6.158;2023-07-02T04:54:29;15.70;99.90
52869;DHT22;39100;53.480;6.158;2023-07-02T04:56:54;15.70;99.90
52869;DHT22;39100;53.480;6.158;2023-07-02T04:59:21;15.70;99.90
52869;DHT22;39100;53.480;6.158;2023-07-02T05:01:46;16.10;99.90
52869;DHT22;39100;53.480;6.158;2023-07-02T05:04:12;15.80;99.90
52869;DHT22;39100;53.480;6.158;2023-07-02T05:06:38;15.80;99.90
52869;DHT22;39100;53.480;6.158;2023-07-02T05:09:03;15.70;99.90
52869;DHT22;39100;53.480;6.158;2023-07-02T05:11:29;15.90;99.90
52869;DHT22;39100;53.480;6.158;2023-07-02T05:13:55;15.70;99.90
52869;DHT22;39100;53.480;6.158;2023-07-02T05:16:20;15.80;99.90
52869;DHT22;39100;53.480;6.158;2023-07-02T05:18:46;15.80;99.90
52869;DHT22;39100;53.480;6.158;2023-07-02T05:21:11;15.80;99.90
52869;DHT22;39100;53.480;6.158;2023-07-02T05:23:37;15.90;99.90
52869;DHT22;39100;53.480;6.158;2023-07-02T05:26:03;15.90;99.90
52869;DHT22;39100;53.480;6.158;2023-07-02T05:28:29;16.10;99.90
52869;DHT22;39100;53.480;6.158;2023-07-02T05:30:54;16.00;99.90
52869;DHT22;39100;53.480;6.158;2023-07-02T05:33:20;15.90;99.90
52869;DHT22;39100;53.480;6.158;2023-07-02T05:35:47;16.00;99.90
52869;DHT22;39100;53.480;6.158;2023-07-02T05:38:13;16.00;99.90
52869;DHT22;39100;53.480;6.158;2023-07-02T05:40:39;16.20;99.90
52869;DHT22;39100;53.480;6.158;2023-07-02T05:43:04;16.30;99.90
52869;DHT22;39100;53.480;6.158;2023-07-02T05:45:30;16.40;99.90
52869;DHT22;39100;53.480;6.158;2023-07-02T05:47:55;16.40;99.90
52869;DHT22;39100;53.480;6.158;2023-07-02T05:50:21;16.30;99.90
52869;DHT22;39100;53.480;6.158;2023-07-02T05:52:47;16.20;99.90
52869;DHT22;39100;53.480;6.158;2023-07-02T05:55:12;16.10;99.90
52869;DHT22;39100;53.480;6.158;2023-07-02T05:57:38;16.10;99.90
52869;DHT22;39100;53.480;6.158;2023-07-02T06:00:05;16.10;99.90
52869;DHT22;39100;53.480;6.158;2023-07-02T06:02:31;16.30;99.90
52869;DHT22;39100;53.480;6.158;2023-07-02T06:04:57;16.80;99.90
52869;DHT22;39100;53.480;6.158;2023-07-02T06:07:24;16.60;99.90
52869;DHT22;39100;53.480;6.158;2023-07-02T06:09:50;16.60;99.90
52869;DHT22;39100;53.480;6.158;2023-07-02T06:12:16;16.70;99.90
52869;DHT22;39100;53.480;6.158;2023-07-02T06:14:41;16.80;99.90
52869;DHT22;39100;53.480;6.158;2023-07-02T06:17:07;16.70;99.90
52869;DHT22;39100;53.480;6.158;2023-07-02T06:19:33;16.50;99.90
52869;DHT22;39100;53.480;6.158;2023-07-02T06:21:59;16.50;99.90
52869;DHT22;39100;53.480;6.158;2023-07-02T06:24:25;16.60;99.90
52869;DHT22;39100;53.480;6.158;2023-07-02T06:26:50;16.70;99.90
52869;DHT22;39100;53.480;6.158;2023-07-02T06:29:16;16.90;99.90
52869;DHT22;39100;53.480;6.158;2023-07-02T06:31:41;17.10;99.90
52869;DHT22;39100;53.480;6.158;2023-07-02T06:34:07;17.10;99.90
52869;DHT22;39100;53.480;6.158;2023-07-02T06:36:34;17.00;99.90
52869;DHT22;39100;53.480;6.158;2023-07-02T06:39:00;17.00;99.90
52869;DHT22;39100;53.480;6.158;2023-07-02T06:41:26;17.00;99.90
52869;DHT22;39100;53.480;6.158;2023-07-02T06:43:51;17.10;99.90
52869;DHT22;39100;53.480;6.158;2023-07-02T06:46:17;17.00;99.90
52869;DHT22;39100;53.480;6.158;2023-07-02T06:48:42;17.00;99.90
52869;DHT22;39100;53.480;6.158;2023-07-02T06:51:08;17.00;99.90
52869;DHT22;39100;53.480;6.158;2023-07-02T06:53:34;17.10;99.90
52869;DHT22;39100;53.480;6.158;2023-07-02T06:55:59;17.00;99.90
52869;DHT22;39100;53.480;6.158;2023-07-02T06:58:25;17.00;99.90
52869;DHT22;39100;53.480;6.158;2023-07-02T07:00:51;17.20;99.90
52869;DHT22;39100;53.480;6.158;2023-07-02T07:03:16;17.00;99.90
52869;DHT22;39100;53.480;6.158;2023-07-02T07:05:42;17.00;99.90
52869;DHT22;39100;53.480;6.158;2023-07-02T07:08:08;17.20;99.90
52869;DHT22;39100;53.480;6.158;2023-07-02T07:10:33;17.20;99.90
52869;DHT22;39100;53.480;6.158;2023-07-02T07:13:03;17.30;99.90
52869;DHT22;39100;53.480;6.158;2023-07-02T07:15:38;17.30;99.90
52869;DHT22;39100;53.480;6.158;2023-07-02T07:18:04;17.50;99.90
52869;DHT22;39100;53.480;6.158;2023-07-02T07:20:30;17.50;99.90
52869;DHT22;39100;53.480;6.158;2023-07-02T07:22:56;17.70;99.90
52869;DHT22;39100;53.480;6.158;2023-07-02T07:25:22;17.80;99.90
52869;DHT22;39100;53.480;6.158;2023-07-02T07:27:48;17.90;99.90
52869;DHT22;39100;53.480;6.158;2023-07-02T07:30:13;18.10;99.90
52869;DHT22;39100;53.480;6.158;2023-07-02T07:32:40;18.20;99.90
52869;DHT22;39100;53.480;6.158;2023-07-02T07:35:07;18.30;99.90
52869;DHT22;39100;53.480;6.158;2023-07-02T07:37:33;18.30;99.90
52869;DHT22;39100;53.480;6.158;2023-07-02T07:39:59;18.20;99.90
52869;DHT22;39100;53.480;6.158;2023-07-02T07:42:24;18.30;99.90
52869;DHT22;39100;53.480;6.158;2023-07-02T07:44:50;18.30;99.90
52869;DHT22;39100;53.480;6.158;2023-07-02T07:47:16;18.40;99.90
52869;DHT22;39100;53.480;6.158;2023-07-02T07:49:41;18.50;99.90
52869;DHT22;39100;53.480;6.158;2023-07-02T07:52:07;18.50;99.90
52869;DHT22;39100;53.480;6.158;2023-07-02T07:54:33;18.60;99.90
52869;DHT22;39100;53.480;6.158;2023-07-02T07:57:03;18.60;99.90
52869;DHT22;39100;53.480;6.158;2023-07-02T07:59:29;18.50;99.90
52869;DHT22;39100;53.480;6.158;2023-07-02T08:01:55;18.40;99.90
52869;DHT22;39100;53.480;6.158;2023-07-02T08:04:21;18.40;99.90
52869;DHT22;39100;53.480;6.158;2023-07-02T08:06:46;18.50;99.90
52869;DHT22;39100;53.480;6.158;2023-07-02T08:09:12;18.50;99.90
52869;DHT22;39100;53.480;6.158;2023-07-02T08:11:37;18.40;99.90
52869;DHT22;39100;53.480;6.158;2023-07-02T08:14:03;18.30;99.90
52869;DHT22;39100;53.480;6.158;2023-07-02T08:16:29;18.30;99.90
52869;DHT22;39100;53.480;6.158;2023-07-02T08:18:54;18.50;99.90
52869;DHT22;39100;53.480;6.158;2023-07-02T08:21:20;18.60;99.90
52869;DHT22;39100;53.480;6.158;2023-07-02T08:23:45;18.30;99.90
52869;DHT22;39100;53.480;6.158;2023-07-02T08:26:11;18.40;99.90
52869;DHT22;39100;53.480;6.158;2023-07-02T08:28:38;18.50;99.90
52869;DHT22;39100;53.480;6.158;2023-07-02T08:31:04;18.70;99.90
52869;DHT22;39100;53.480;6.158;2023-07-02T08:33:30;18.70;99.90
52869;DHT22;39100;53.480;6.158;2023-07-02T08:35:56;18.90;99.90
52869;DHT22;39100;53.480;6.158;2023-07-02T08:38:23;18.90;99.90
52869;DHT22;39100;53.480;6.158;2023-07-02T08:40:51;19.00;99.90
52869;DHT22;39100;53.480;6.158;2023-07-02T08:43:17;19.10;99.90
52869;DHT22;39100;53.480;6.158;2023-07-02T08:45:43;19.20;99.90
52869;DHT22;39100;53.480;6.158;2023-07-02T08:48:10;19.10;99.90
52869;DHT22;39100;53.480;6.158;2023-07-02T08:50:36;19.30;99.90
52869;DHT22;39100;53.480;6.158;2023-07-02T08:53:02;19.10;99.90
52869;DHT22;39100;53.480;6.158;2023-07-02T08:55:27;19.10;99.90
52869;DHT22;39100;53.480;6.158;2023-07-02T08:57:56;19.20;99.90
52869;DHT22;39100;53.480;6.158;2023-07-02T09:00:24;19.30;99.90
52869;DHT22;39100;53.480;6.158;2023-07-02T09:02:50;19.50;99.90
52869;DHT22;39100;53.480;6.158;2023-07-02T09:05:16;19.40;99.90
52869;DHT22;39100;53.480;6.158;2023-07-02T09:07:49;19.50;99.90
52869;DHT22;39100;53.480;6.158;2023-07-02T09:10:30;19.40;99.90
52869;DHT22;39100;53.480;6.158;2023-07-02T09:13:03;19.10;99.90
52869;DHT22;39100;53.480;6.158;2023-07-02T09:15:35;18.70;99.90
52869;DHT22;39100;53.480;6.158;2023-07-02T09:18:02;18.20;99.90
52869;DHT22;39100;53.480;6.158;2023-07-02T09:20:34;18.00;99.90
52869;DHT22;39100;53.480;6.158;2023-07-02T09:23:00;18.00;99.90
52869;DHT22;39100;53.480;6.158;2023-07-02T09:25:39;17.90;99.90
52869;DHT22;39100;53.480;6.158;2023-07-02T09:28:19;17.90;99.90
52869;DHT22;39100;53.480;6.158;2023-07-02T09:30:56;18.20;99.90
52869;DHT22;39100;53.480;6.158;2023-07-02T09:33:27;18.50;99.90
52869;DHT22;39100;53.480;6.158;2023-07-02T09:35:53;18.80;99.90
52869;DHT22;39100;53.480;6.158;2023-07-02T09:38:20;19.00;99.90
52869;DHT22;39100;53.480;6.158;2023-07-02T09:40:51;19.20;99.90
52869;DHT22;39100;53.480;6.158;2023-07-02T09:43:18;19.30;99.90
52869;DHT22;39100;53.480;6.158;2023-07-02T09:45:46;19.30;99.90
52869;DHT22;39100;53.480;6.158;2023-07-02T09:48:14;19.40;99.90
52869;DHT22;39100;53.480;6.158;2023-07-02T09:50:43;19.40;99.90
52869;DHT22;39100;53.480;6.158;2023-07-02T09:53:09;19.20;99.90
52869;DHT22;39100;53.480;6.158;2023-07-02T09:55:37;19.10;99.90
52869;DHT22;39100;53.480;6.158;2023-07-02T09:58:05;19.00;99.90
52869;DHT22;39100;53.480;6.158;2023-07-02T10:00:31;19.10;99.90
52869;DHT22;39100;53.480;6.158;2023-07-02T10:02:57;19.30;99.90
52869;DHT22;39100;53.480;6.158;2023-07-02T10:05:31;19.50;99.90
52869;DHT22;39100;53.480;6.158;2023-07-02T10:08:11;19.50;99.90
52869;DHT22;39100;53.480;6.158;2023-07-02T10:11:17;19.70;99.90
52869;DHT22;39100;53.480;6.158;2023-07-02T10:13:43;19.90;99.90
52869;DHT22;39100;53.480;6.158;2023-07-02T10:16:08;19.80;99.90
52869;DHT22;39100;53.480;6.158;2023-07-02T10:18:38;19.80;99.90
52869;DHT22;39100;53.480;6.158;2023-07-02T10:21:16;19.80;99.90
52869;DHT22;39100;53.480;6.158;2023-07-02T10:27:45;19.60;99.90
52869;DHT22;39100;53.480;6.158;2023-07-02T10:30:41;19.70;99.90
52869;DHT22;39100;53.480;6.158;2023-07-02T10:37:40;19.80;99.90
52869;DHT22;39100;53.480;6.158;2023-07-02T10:40:03;19.90;99.90
52869;DHT22;39100;53.480;6.158;2023-07-02T10:42:31;20.00;99.90
52869;DHT22;39100;53.480;6.158;2023-07-02T10:44:59;20.20;99.90
52869;DHT22;39100;53.480;6.158;2023-07-02T10:51:31;20.40;99.90
52869;DHT22;39100;53.480;6.158;2023-07-02T10:55:15;20.30;99.90
52869;DHT22;39100;53.480;6.158;2023-07-02T10:57:43;20.10;99.90
52869;DHT22;39100;53.480;6.158;2023-07-02T11:00:12;20.30;99.90
52869;DHT22;39100;53.480;6.158;2023-07-02T11:02:37;20.10;99.90
52869;DHT22;39100;53.480;6.158;2023-07-02T11:05:07;20.40;99.90
52869;DHT22;39100;53.480;6.158;2023-07-02T11:07:38;20.10;99.90
52869;DHT22;39100;53.480;6.158;2023-07-02T11:10:04;20.40;99.90
52869;DHT22;39100;53.480;6.158;2023-07-02T11:12:31;19.50;99.90
52869;DHT22;39100;53.480;6.158;2023-07-02T11:15:07;19.70;99.90
52869;DHT22;39100;53.480;6.158;2023-07-02T11:17:33;19.70;99.90
52869;DHT22;39100;53.480;6.158;2023-07-02T11:19:59;20.00;99.90
52869;DHT22;39100;53.480;6.158;2023-07-02T11:22:34;19.60;99.90
52869;DHT22;39100;53.480;6.158;2023-07-02T11:25:17;19.40;99.90
52869;DHT22;39100;53.480;6.158;2023-07-02T11:27:43;19.30;99.90
52869;DHT22;39100;53.480;6.158;2023-07-02T11:30:10;19.10;99.90
52869;DHT22;39100;53.480;6.158;2023-07-02T11:32:56;19.10;99.90
52869;DHT22;39100;53.480;6.158;2023-07-02T11:35:22;19.80;99.90
52869;DHT22;39100;53.480;6.158;2023-07-02T11:37:59;19.90;99.90
52869;DHT22;39100;53.480;6.158;2023-07-02T11:40:24;19.30;99.90
52869;DHT22;39100;53.480;6.158;2023-07-02T11:42:50;19.20;99.90
52869;DHT22;39100;53.480;6.158;2023-07-02T11:45:16;19.30;99.90
52869;DHT22;39100;53.480;6.158;2023-07-02T11:47:41;19.50;99.90
52869;DHT22;39100;53.480;6.158;2023-07-02T11:50:07;19.70;99.90
52869;DHT22;39100;53.480;6.158;2023-07-02T11:52:33;19.50;99.90
52869;DHT22;39100;53.480;6.158;2023-07-02T11:54:58;19.40;99.90
52869;DHT22;39100;53.480;6.158;2023-07-02T11:57:24;19.60;99.90
52869;DHT22;39100;53.480;6.158;2023-07-02T11:59:50;19.10;99.90
52869;DHT22;39100;53.480;6.158;2023-07-02T12:02:16;19.20;99.90
52869;DHT22;39100;53.480;6.158;2023-07-02T12:04:41;19.00;99.90
52869;DHT22;39100;53.480;6.158;2023-07-02T12:07:07;18.90;99.90
52869;DHT22;39100;53.480;6.158;2023-07-02T12:09:32;18.80;99.90
52869;DHT22;39100;53.480;6.158;2023-07-02T12:11:58;18.50;99.90
52869;DHT22;39100;53.480;6.158;2023-07-02T12:14:24;18.90;99.90
52869;DHT22;39100;53.480;6.158;2023-07-02T12:16:49;18.60;99.90
52869;DHT22;39100;53.480;6.158;2023-07-02T12:19:15;18.50;99.90
52869;DHT22;39100;53.480;6.158;2023-07-02T12:21:40;18.70;99.90
52869;DHT22;39100;53.480;6.158;2023-07-02T12:24:06;19.30;99.90
52869;DHT22;39100;53.480;6.158;2023-07-02T12:26:38;19.50;99.90
52869;DHT22;39100;53.480;6.158;2023-07-02T12:29:04;19.60;99.90
52869;DHT22;39100;53.480;6.158;2023-07-02T12:31:30;19.70;99.90
52869;DHT22;39100;53.480;6.158;2023-07-02T12:33:56;20.50;99.90
52869;DHT22;39100;53.480;6.158;2023-07-02T12:36:21;20.00;99.90
52869;DHT22;39100;53.480;6.158;2023-07-02T12:38:47;20.20;99.90
52869;DHT22;39100;53.480;6.158;2023-07-02T12:41:12;20.30;99.90
52869;DHT22;39100;53.480;6.158;2023-07-02T12:43:38;20.30;99.90
52869;DHT22;39100;53.480;6.158;2023-07-02T12:46:04;20.50;99.90
52869;DHT22;39100;53.480;6.158;2023-07-02T12:48:29;20.20;99.90
52869;DHT22;39100;53.480;6.158;2023-07-02T12:50:59;20.10;99.90
52869;DHT22;39100;53.480;6.158;2023-07-02T12:53:25;20.00;99.90
52869;DHT22;39100;53.480;6.158;2023-07-02T12:55:52;19.60;99.90
52869;DHT22;39100;53.480;6.158;2023-07-02T12:58:17;19.30;99.90
52869;DHT22;39100;53.480;6.158;2023-07-02T13:00:43;19.10;99.90
52869;DHT22;39100;53.480;6.158;2023-07-02T13:03:11;19.20;99.90
52869;DHT22;39100;53.480;6.158;2023-07-02T13:05:37;19.20;99.90
52869;DHT22;39100;53.480;6.158;2023-07-02T13:08:03;19.00;99.90
52869;DHT22;39100;53.480;6.158;2023-07-02T13:10:33;18.90;99.90
52869;DHT22;39100;53.480;6.158;2023-07-02T13:12:59;18.80;99.90
52869;DHT22;39100;53.480;6.158;2023-07-02T13:15:24;18.50;99.90
52869;DHT22;39100;53.480;6.158;2023-07-02T13:17:50;18.50;99.90
52869;DHT22;39100;53.480;6.158;2023-07-02T13:20:16;18.70;99.90
52869;DHT22;39100;53.480;6.158;2023-07-02T13:22:42;18.60;99.90
52869;DHT22;39100;53.480;6.158;2023-07-02T13:25:08;18.50;99.90
52869;DHT22;39100;53.480;6.158;2023-07-02T13:27:33;18.60;99.90
52869;DHT22;39100;53.480;6.158;2023-07-02T13:29:59;18.60;99.90
52869;DHT22;39100;53.480;6.158;2023-07-02T13:32:25;18.30;99.90
52869;DHT22;39100;53.480;6.158;2023-07-02T13:34:50;18.30;99.90
52869;DHT22;39100;53.480;6.158;2023-07-02T13:37:16;18.20;99.90
52869;DHT22;39100;53.480;6.158;2023-07-02T13:39:48;18.30;99.90
52869;DHT22;39100;53.480;6.158;2023-07-02T13:42:14;18.10;99.90
52869;DHT22;39100;53.480;6.158;2023-07-02T13:44:40;18.10;99.90
52869;DHT22;39100;53.480;6.158;2023-07-02T13:47:07;18.20;99.90
52869;DHT22;39100;53.480;6.158;2023-07-02T13:49:32;18.10;99.90
52869;DHT22;39100;53.480;6.158;2023-07-02T13:51:58;18.00;99.90
52869;DHT22;39100;53.480;6.158;2023-07-02T13:54:24;17.90;99.90
52869;DHT22;39100;53.480;6.158;2023-07-02T13:56:50;17.90;99.90
52869;DHT22;39100;53.480;6.158;2023-07-02T13:59:17;17.90;99.90
52869;DHT22;39100;53.480;6.158;2023-07-02T14:01:43;17.80;99.90
52869;DHT22;39100;53.480;6.158;2023-07-02T14:04:10;17.70;99.90
52869;DHT22;39100;53.480;6.158;2023-07-02T14:06:36;17.70;99.90
52869;DHT22;39100;53.480;6.158;2023-07-02T14:09:02;17.70;99.90
52869;DHT22;39100;53.480;6.158;2023-07-02T14:11:28;17.90;99.90
52869;DHT22;39100;53.480;6.158;2023-07-02T14:13:54;18.00;99.90
52869;DHT22;39100;53.480;6.158;2023-07-02T14:16:20;18.00;99.90
52869;DHT22;39100;53.480;6.158;2023-07-02T14:18:47;18.00;99.90
52869;DHT22;39100;53.480;6.158;2023-07-02T14:21:12;17.90;99.90
52869;DHT22;39100;53.480;6.158;2023-07-02T14:23:38;17.80;99.90
52869;DHT22;39100;53.480;6.158;2023-07-02T14:26:04;17.80;99.90
52869;DHT22;39100;53.480;6.158;2023-07-02T14:28:30;17.80;99.90
52869;DHT22;39100;53.480;6.158;2023-07-02T14:30:57;17.80;99.90
52869;DHT22;39100;53.480;6.158;2023-07-02T14:33:24;17.80;99.90
52869;DHT22;39100;53.480;6.158;2023-07-02T14:35:49;17.80;99.90
52869;DHT22;39100;53.480;6.158;2023-07-02T14:38:15;17.90;99.90
52869;DHT22;39100;53.480;6.158;2023-07-02T14:40:40;17.70;99.90
52869;DHT22;39100;53.480;6.158;2023-07-02T14:43:06;17.70;99.90
52869;DHT22;39100;53.480;6.158;2023-07-02T14:45:32;17.90;99.90
52869;DHT22;39100;53.480;6.158;2023-07-02T14:47:58;17.80;99.90
52869;DHT22;39100;53.480;6.158;2023-07-02T14:50:26;17.80;99.90
52869;DHT22;39100;53.480;6.158;2023-07-02T14:52:53;17.80;99.90
52869;DHT22;39100;53.480;6.158;2023-07-02T14:55:19;17.80;99.90
52869;DHT22;39100;53.480;6.158;2023-07-02T14:57:45;17.70;99.90
52869;DHT22;39100;53.480;6.158;2023-07-02T15:00:11;17.70;99.90
52869;DHT22;39100;53.480;6.158;2023-07-02T15:02:37;17.70;99.90
52869;DHT22;39100;53.480;6.158;2023-07-02T15:05:03;17.90;99.90
52869;DHT22;39100;53.480;6.158;2023-07-02T15:07:29;17.70;99.90
52869;DHT22;39100;53.480;6.158;2023-07-02T15:09:55;17.70;99.90
52869;DHT22;39100;53.480;6.158;2023-07-02T15:12:20;17.70;99.90
52869;DHT22;39100;53.480;6.158;2023-07-02T15:14:46;17.70;99.90
52869;DHT22;39100;53.480;6.158;2023-07-02T15:17:11;17.70;99.90
52869;DHT22;39100;53.480;6.158;2023-07-02T15:19:37;17.70;99.90
52869;DHT22;39100;53.480;6.158;2023-07-02T15:22:03;17.80;99.90
52869;DHT22;39100;53.480;6.158;2023-07-02T15:24:28;17.70;99.90
52869;DHT22;39100;53.480;6.158;2023-07-02T15:26:54;17.90;99.90
52869;DHT22;39100;53.480;6.158;2023-07-02T15:29:19;18.10;99.90
52869;DHT22;39100;53.480;6.158;2023-07-02T15:31:45;18.50;99.90
52869;DHT22;39100;53.480;6.158;2023-07-02T15:34:12;18.60;99.90
52869;DHT22;39100;53.480;6.158;2023-07-02T15:36:41;18.90;99.90
52869;DHT22;39100;53.480;6.158;2023-07-02T15:39:07;19.00;99.90
52869;DHT22;39100;53.480;6.158;2023-07-02T15:41:33;19.10;99.90